createdAt,value
2017-10-11T00:01:27.126Z,92.68
2017-10-11T00:03:54.672Z,92.36
2017-10-11T00:06:22.141Z,92.82
2017-10-11T00:08:49.609Z,92.33
2017-10-11T00:11:17.143Z,92.16
2017-10-11T00:13:44.596Z,91.94
2017-10-11T00:16:12.062Z,92.05
2017-10-11T00:18:39.611Z,91.66
2017-10-11T00:21:07.178Z,91.71
2017-10-11T00:23:34.635Z,91.81
2017-10-11T00:26:02.091Z,91.47
2017-10-11T00:28:29.554Z,91.46
2017-10-11T00:30:57.010Z,91.21
2017-10-11T00:33:24.473Z,91.42
2017-10-11T00:35:52.007Z,91.02
2017-10-11T00:38:19.516Z,91.00
2017-10-11T00:40:46.966Z,91.09
2017-10-11T00:43:14.438Z,90.84
2017-10-11T00:45:41.892Z,91.40
2017-10-11T00:48:09.408Z,91.41
2017-10-11T00:50:36.870Z,91.29
2017-10-11T00:53:04.418Z,91.16
2017-10-11T00:55:31.886Z,91.50
2017-10-11T00:57:59.475Z,91.50
2017-10-11T01:00:26.958Z,91.88
2017-10-11T01:02:54.468Z,92.50
2017-10-11T01:05:21.926Z,92.99
2017-10-11T01:07:49.389Z,92.95
2017-10-11T01:10:16.933Z,92.83
2017-10-11T01:12:44.484Z,92.81
2017-10-11T01:15:11.991Z,92.10
2017-10-11T01:17:39.513Z,92.73
2017-10-11T01:20:07.057Z,92.67
2017-10-11T01:22:34.512Z,92.50
2017-10-11T01:25:02.043Z,92.55
2017-10-11T01:27:29.508Z,92.78
2017-10-11T01:29:57.040Z,93.45
2017-10-11T01:32:24.504Z,92.62
2017-10-11T01:34:52.010Z,92.41
2017-10-11T01:37:19.569Z,92.15
2017-10-11T01:39:47.059Z,91.96
2017-10-11T01:42:14.511Z,91.97
2017-10-11T01:44:41.993Z,92.28
2017-10-11T01:47:09.480Z,92.13
2017-10-11T01:49:36.950Z,93.09
2017-10-11T01:52:04.455Z,93.53
2017-10-11T01:54:31.941Z,93.93
2017-10-11T01:56:59.435Z,93.09
2017-10-11T01:59:27.002Z,92.70
2017-10-11T02:01:54.510Z,92.70
2017-10-11T02:04:21.960Z,91.96
2017-10-11T02:06:49.443Z,92.16
2017-10-11T02:09:16.899Z,91.71
2017-10-11T02:11:44.380Z,91.45
2017-10-11T02:14:11.850Z,91.43
2017-10-11T02:16:39.388Z,90.14
2017-10-11T02:19:06.862Z,89.57
2017-10-11T02:21:34.316Z,90.14
2017-10-11T02:24:01.858Z,89.63
2017-10-11T02:26:29.325Z,91.11
2017-10-11T02:28:56.879Z,91.49
2017-10-11T02:31:24.378Z,91.44
2017-10-11T02:33:51.866Z,91.34
2017-10-11T02:36:19.344Z,91.32
2017-10-11T02:38:46.859Z,91.79
2017-10-11T02:41:14.326Z,91.56
2017-10-11T02:43:41.913Z,91.38
2017-10-11T02:46:09.388Z,91.66
2017-10-11T02:48:36.895Z,91.86
2017-10-11T02:51:04.361Z,91.67
2017-10-11T02:53:31.849Z,92.25
2017-10-11T02:55:59.410Z,91.79
2017-10-11T02:58:26.919Z,91.72
2017-10-11T03:00:54.441Z,91.51
2017-10-11T03:03:21.917Z,91.20
2017-10-11T03:05:49.396Z,91.71
2017-10-11T03:08:16.861Z,91.39
2017-10-11T03:10:44.371Z,91.59
2017-10-11T03:13:11.827Z,91.93
2017-10-11T03:15:39.317Z,91.82
2017-10-11T03:18:06.834Z,91.61
2017-10-11T03:20:34.321Z,91.70
2017-10-11T03:23:01.779Z,91.73
2017-10-11T03:25:29.268Z,91.96
2017-10-11T03:27:57.570Z,92.03
2017-10-11T03:30:25.126Z,91.79
2017-10-11T03:32:52.600Z,91.93
2017-10-11T03:35:20.086Z,91.55
2017-10-11T03:37:47.549Z,91.45
2017-10-11T03:40:15.046Z,91.40
2017-10-11T03:42:42.514Z,91.02
2017-10-11T03:45:10.068Z,91.54
2017-10-11T03:47:37.559Z,91.08
2017-10-11T03:50:05.020Z,91.34
2017-10-11T03:52:32.505Z,90.93
2017-10-11T03:54:59.986Z,90.88
2017-10-11T03:57:27.469Z,90.80
2017-10-11T03:59:54.999Z,90.66
2017-10-11T04:02:22.565Z,91.30
2017-10-11T04:04:50.044Z,91.12
2017-10-11T04:07:17.581Z,91.16
2017-10-11T04:09:45.045Z,91.20
2017-10-11T04:12:12.523Z,90.60
2017-10-11T04:14:39.998Z,90.38
2017-10-11T04:17:07.481Z,90.46
2017-10-11T04:19:34.970Z,91.06
2017-10-11T04:22:02.443Z,90.40
2017-10-11T04:24:29.909Z,90.20
2017-10-11T04:26:57.389Z,89.98
2017-10-11T04:29:26.159Z,90.70
2017-10-11T04:31:53.653Z,90.36
2017-10-11T04:34:21.117Z,90.92
2017-10-11T04:36:48.563Z,90.40
2017-10-11T04:39:16.051Z,90.30
2017-10-11T04:41:43.536Z,90.61
2017-10-11T04:44:11.021Z,90.22
2017-10-11T04:46:38.478Z,90.34
2017-10-11T04:49:05.983Z,90.72
2017-10-11T04:51:33.449Z,90.80
2017-10-11T04:54:00.923Z,90.95
2017-10-11T04:56:28.400Z,92.39
2017-10-11T04:58:55.972Z,91.28
2017-10-11T05:01:23.441Z,91.07
2017-10-11T05:03:51.069Z,91.53
2017-10-11T05:06:18.534Z,92.30
2017-10-11T05:08:46.014Z,92.31
2017-10-11T05:11:13.543Z,92.35
2017-10-11T05:13:41.044Z,92.06
2017-10-11T05:16:08.510Z,91.55
2017-10-11T05:18:35.996Z,91.34
2017-10-11T05:21:03.546Z,91.42
2017-10-11T05:23:31.089Z,90.73
2017-10-11T05:25:58.577Z,91.01
2017-10-11T05:28:26.056Z,91.44
2017-10-11T05:30:53.547Z,90.97
2017-10-11T05:33:21.116Z,90.95
2017-10-11T05:35:48.643Z,90.88
2017-10-11T05:38:16.137Z,90.65
2017-10-11T05:40:43.616Z,90.72
2017-10-11T05:43:11.122Z,90.10
2017-10-11T05:45:38.630Z,89.79
2017-10-11T05:48:06.151Z,90.35
2017-10-11T05:50:33.663Z,90.72
2017-10-11T05:53:01.121Z,90.13
2017-10-11T05:55:28.642Z,89.50
2017-10-11T05:57:56.140Z,90.34
2017-10-11T06:00:23.658Z,90.01
2017-10-11T06:02:51.152Z,89.88
2017-10-11T06:05:18.681Z,90.28
2017-10-11T06:07:46.167Z,89.76
2017-10-11T06:10:13.637Z,90.00
2017-10-11T06:12:41.132Z,90.19
2017-10-11T06:15:08.689Z,90.15
2017-10-11T06:17:36.159Z,89.99
2017-10-11T06:20:03.634Z,89.74
2017-10-11T06:22:31.134Z,89.71
2017-10-11T06:24:59.146Z,89.64
2017-10-11T06:27:26.648Z,89.27
2017-10-11T06:29:54.121Z,89.24
2017-10-11T06:32:21.602Z,89.32
2017-10-11T06:34:49.066Z,89.42
2017-10-11T06:37:16.567Z,89.32
2017-10-11T06:39:44.056Z,88.92
2017-10-11T06:42:11.538Z,88.19
2017-10-11T06:44:39.019Z,87.91
2017-10-11T06:47:06.483Z,87.57
2017-10-11T06:49:33.967Z,87.18
2017-10-11T06:52:01.469Z,86.34
2017-10-11T06:54:28.964Z,86.24
2017-10-11T06:56:56.445Z,86.04
2017-10-11T06:59:23.943Z,86.07
2017-10-11T07:01:51.404Z,86.29
2017-10-11T07:04:18.966Z,86.30
2017-10-11T07:06:46.465Z,85.76
2017-10-11T07:09:13.956Z,85.17
2017-10-11T07:11:41.421Z,84.61
2017-10-11T07:14:08.909Z,85.03
2017-10-11T07:16:36.368Z,84.00
2017-10-11T07:19:03.906Z,84.82
2017-10-11T07:21:31.382Z,83.37
2017-10-11T07:23:58.878Z,81.58
2017-10-11T07:26:26.365Z,83.09
2017-10-11T07:28:53.880Z,83.36
2017-10-11T07:31:21.356Z,82.03
2017-10-11T07:33:48.946Z,82.70
2017-10-11T07:36:16.429Z,82.74
2017-10-11T07:38:43.926Z,82.65
2017-10-11T07:41:11.418Z,82.04
2017-10-11T07:43:38.987Z,81.38
2017-10-11T07:46:06.474Z,81.23
2017-10-11T07:48:33.945Z,81.06
2017-10-11T07:51:01.458Z,79.92
2017-10-11T07:53:28.945Z,80.10
2017-10-11T07:55:56.435Z,80.23
2017-10-11T07:58:23.889Z,79.89
2017-10-11T08:00:51.392Z,79.41
2017-10-11T08:03:18.849Z,78.78
2017-10-11T08:05:46.337Z,77.86
2017-10-11T08:08:13.836Z,78.50
2017-10-11T08:10:41.328Z,77.14
2017-10-11T08:13:08.779Z,76.50
2017-10-11T08:15:36.316Z,77.21
2017-10-11T08:18:03.786Z,76.45
2017-10-11T08:20:31.261Z,76.92
2017-10-11T08:22:58.836Z,76.62
2017-10-11T08:25:26.400Z,76.09
2017-10-11T08:27:53.905Z,75.01
2017-10-11T08:30:21.409Z,75.56
2017-10-11T08:32:48.868Z,74.01
2017-10-11T08:35:16.355Z,74.69
2017-10-11T08:37:43.875Z,75.15
2017-10-11T08:40:11.342Z,73.83
2017-10-11T08:42:38.829Z,75.22
2017-10-11T08:45:06.294Z,74.23
2017-10-11T08:47:33.790Z,75.06
2017-10-11T08:50:01.239Z,76.09
2017-10-11T08:52:28.785Z,74.57
2017-10-11T08:54:56.235Z,73.41
2017-10-11T08:57:23.804Z,73.65
2017-10-11T08:59:51.264Z,73.08
2017-10-11T09:02:18.813Z,73.30
2017-10-11T09:04:46.274Z,74.01
2017-10-11T09:07:13.760Z,74.11
2017-10-11T09:09:41.294Z,73.52
2017-10-11T09:12:08.811Z,72.18
2017-10-11T09:14:36.277Z,70.76
2017-10-11T09:17:03.741Z,70.56
2017-10-11T09:19:31.205Z,71.13
2017-10-11T09:21:58.770Z,70.27
2017-10-11T09:24:26.246Z,68.84
2017-10-11T09:26:53.737Z,68.93
2017-10-11T09:29:21.285Z,68.98
2017-10-11T09:31:48.752Z,69.00
2017-10-11T09:34:16.253Z,68.60
2017-10-11T09:36:43.703Z,68.23
2017-10-11T09:39:11.176Z,68.47
2017-10-11T09:41:38.626Z,68.72
2017-10-11T09:44:06.137Z,68.72
2017-10-11T09:46:33.598Z,67.96
2017-10-11T09:49:01.099Z,67.90
2017-10-11T09:51:28.571Z,67.81
2017-10-11T09:53:56.109Z,67.58
2017-10-11T09:56:23.554Z,66.78
2017-10-11T09:58:51.038Z,66.22
2017-10-11T10:01:18.584Z,66.23
2017-10-11T10:03:46.142Z,66.63
2017-10-11T10:06:13.621Z,66.08
2017-10-11T10:08:41.098Z,65.93
2017-10-11T10:11:08.601Z,65.88
2017-10-11T10:13:36.076Z,65.47
2017-10-11T10:16:03.527Z,65.89
2017-10-11T10:18:30.996Z,65.88
2017-10-11T10:20:58.455Z,67.06
2017-10-11T10:23:25.953Z,66.46
2017-10-11T10:25:53.414Z,65.26
2017-10-11T10:28:20.888Z,65.22
2017-10-11T10:30:48.355Z,65.87
2017-10-11T10:33:15.843Z,65.79
2017-10-11T10:35:43.386Z,66.05
2017-10-11T10:38:10.869Z,65.55
2017-10-11T10:40:38.344Z,65.77
2017-10-11T10:43:05.825Z,65.96
2017-10-11T10:45:33.285Z,65.69
2017-10-11T10:48:00.764Z,65.35
2017-10-11T10:50:28.249Z,64.97
2017-10-11T10:52:55.709Z,64.12
2017-10-11T10:55:23.199Z,64.60
2017-10-11T10:57:50.701Z,64.68
2017-10-11T11:00:18.253Z,64.26
2017-10-11T11:02:45.713Z,63.72
2017-10-11T11:05:13.272Z,63.62
2017-10-11T11:07:40.741Z,63.66
2017-10-11T11:10:08.254Z,63.78
2017-10-11T11:12:35.754Z,63.73
2017-10-11T11:15:03.295Z,63.46
2017-10-11T11:17:30.762Z,62.12
2017-10-11T11:19:58.316Z,63.74
2017-10-11T11:22:25.801Z,63.33
2017-10-11T11:24:53.331Z,64.11
2017-10-11T11:27:20.883Z,64.56
2017-10-11T11:29:48.404Z,63.73
2017-10-11T11:32:15.944Z,63.93
2017-10-11T11:34:43.469Z,63.41
2017-10-11T11:37:11.036Z,63.96
2017-10-11T11:39:38.529Z,64.92
2017-10-11T11:42:05.995Z,63.22
2017-10-11T11:44:33.486Z,63.46
2017-10-11T11:47:00.967Z,63.20
2017-10-11T11:49:28.448Z,63.86
2017-10-11T11:51:55.899Z,64.27
2017-10-11T11:54:23.372Z,63.94
2017-10-11T11:56:50.837Z,64.58
2017-10-11T11:59:18.335Z,63.98
2017-10-11T12:01:45.805Z,63.05
2017-10-11T12:04:13.334Z,63.14
2017-10-11T12:06:40.801Z,63.14
2017-10-11T12:09:08.365Z,63.11
2017-10-11T12:11:35.845Z,62.80
2017-10-11T12:14:03.301Z,63.62
2017-10-11T12:16:30.843Z,64.47
2017-10-11T12:18:58.389Z,63.73
2017-10-11T12:21:25.889Z,63.25
2017-10-11T12:23:53.377Z,63.29
2017-10-11T12:26:20.865Z,63.24
2017-10-11T12:28:48.318Z,64.64
2017-10-11T12:31:15.889Z,64.06
2017-10-11T12:33:43.441Z,63.96
2017-10-11T12:36:11.001Z,64.68
2017-10-11T12:38:38.472Z,64.68
2017-10-11T12:41:05.949Z,65.06
2017-10-11T12:43:33.434Z,65.24
2017-10-11T12:46:00.915Z,65.90
2017-10-11T12:48:28.367Z,65.00
2017-10-11T12:50:55.842Z,65.15
2017-10-11T12:53:23.299Z,65.32
2017-10-11T12:55:50.847Z,64.70
2017-10-11T12:58:18.309Z,66.08
2017-10-11T13:00:45.883Z,65.70
2017-10-11T13:03:13.346Z,65.67
2017-10-11T13:05:40.821Z,66.40
2017-10-11T13:08:08.393Z,66.33
2017-10-11T13:10:35.886Z,67.08
2017-10-11T13:13:03.344Z,65.64
2017-10-11T13:15:30.918Z,65.83
2017-10-11T13:17:58.415Z,66.46
2017-10-11T13:20:25.878Z,66.78
2017-10-11T13:22:53.379Z,66.19
2017-10-11T13:25:20.855Z,66.11
2017-10-11T13:27:48.335Z,66.06
2017-10-11T13:30:15.861Z,66.12
2017-10-11T13:32:43.368Z,66.62
2017-10-11T13:35:10.850Z,65.85
2017-10-11T13:37:38.329Z,66.32
2017-10-11T13:40:05.894Z,66.85
2017-10-11T13:42:33.382Z,67.42
2017-10-11T13:45:00.902Z,66.27
2017-10-11T13:47:28.489Z,66.33
2017-10-11T13:49:56.023Z,66.32
2017-10-11T13:52:23.505Z,66.84
2017-10-11T13:54:50.975Z,67.29
2017-10-11T13:57:18.461Z,67.44
2017-10-11T13:59:45.943Z,67.87
2017-10-11T14:02:13.509Z,68.65
2017-10-11T14:04:40.964Z,68.06
2017-10-11T14:07:08.458Z,68.29
2017-10-11T14:09:37.838Z,68.53
2017-10-11T14:12:05.394Z,68.59
2017-10-11T14:14:32.853Z,68.64
2017-10-11T14:17:00.396Z,69.47
2017-10-11T14:19:27.861Z,68.97
2017-10-11T14:21:55.418Z,69.52
2017-10-11T14:24:22.877Z,68.87
2017-10-11T14:26:50.364Z,68.94
2017-10-11T14:29:17.827Z,69.54
2017-10-11T14:31:45.313Z,69.68
2017-10-11T14:34:12.764Z,69.35
2017-10-11T14:36:40.247Z,69.77
2017-10-11T14:39:07.721Z,69.32
2017-10-11T14:41:35.185Z,69.81
2017-10-11T14:44:02.675Z,69.07
2017-10-11T14:46:30.153Z,68.75
2017-10-11T14:48:57.654Z,69.81
2017-10-11T14:51:25.124Z,69.23
2017-10-11T14:53:52.610Z,70.27
2017-10-11T14:56:20.122Z,70.08
2017-10-11T14:58:47.596Z,69.99
2017-10-11T15:01:15.125Z,70.41
2017-10-11T15:03:45.773Z,70.73
2017-10-11T15:06:13.234Z,71.12
2017-10-11T15:08:40.712Z,70.26
2017-10-11T15:11:08.214Z,70.22
2017-10-11T15:13:35.700Z,70.09
2017-10-11T15:16:03.255Z,70.71
2017-10-11T15:18:30.768Z,71.33
2017-10-11T15:20:58.285Z,70.34
2017-10-11T15:23:25.838Z,71.06
2017-10-11T15:25:53.370Z,70.75
2017-10-11T15:28:20.854Z,70.42
2017-10-11T15:30:48.322Z,71.12
2017-10-11T15:33:15.847Z,71.50
2017-10-11T15:35:43.318Z,71.53
2017-10-11T15:38:10.787Z,71.60
2017-10-11T15:40:38.258Z,70.63
2017-10-11T15:43:05.805Z,70.72
2017-10-11T15:45:33.265Z,70.80
2017-10-11T15:48:00.789Z,70.82
2017-10-11T15:50:28.265Z,71.33
2017-10-11T15:52:55.813Z,71.13
2017-10-11T15:55:23.382Z,71.46
2017-10-11T15:57:50.929Z,71.96
2017-10-11T16:00:18.396Z,72.42
2017-10-11T16:02:45.949Z,72.19
2017-10-11T16:05:13.442Z,72.01
2017-10-11T16:07:40.926Z,71.42
2017-10-11T16:10:08.398Z,72.10
2017-10-11T16:12:35.973Z,72.36
2017-10-11T16:15:03.437Z,73.09
2017-10-11T16:17:30.941Z,72.49
2017-10-11T16:19:58.453Z,72.95
2017-10-11T16:22:26.014Z,72.70
2017-10-11T16:24:53.511Z,72.31
2017-10-11T16:27:20.971Z,72.07
2017-10-11T16:29:48.454Z,71.82
2017-10-11T16:32:15.932Z,72.14
2017-10-11T16:34:43.399Z,72.67
2017-10-11T16:37:10.951Z,72.38
2017-10-11T16:39:38.535Z,72.91
2017-10-11T16:42:06.075Z,72.77
2017-10-11T16:44:33.633Z,72.80
2017-10-11T16:47:01.092Z,73.10
2017-10-11T16:49:28.569Z,72.73
2017-10-11T16:51:56.025Z,73.79
2017-10-11T16:54:23.517Z,74.80
2017-10-11T16:56:50.970Z,75.91
2017-10-11T16:59:18.453Z,77.71
2017-10-11T17:01:45.941Z,77.78
2017-10-11T17:04:13.418Z,78.39
2017-10-11T17:06:40.903Z,78.85
2017-10-11T17:09:08.393Z,78.64
2017-10-11T17:11:35.873Z,78.92
2017-10-11T17:14:03.365Z,79.19
2017-10-11T17:16:30.819Z,80.15
2017-10-11T17:18:58.320Z,80.13
2017-10-11T17:21:25.808Z,80.78
2017-10-11T17:23:53.387Z,80.78
2017-10-11T17:26:20.928Z,81.08
2017-10-11T17:28:48.409Z,80.46
2017-10-11T17:31:15.869Z,80.66
2017-10-11T17:33:43.365Z,81.04
2017-10-11T17:36:10.829Z,81.01
2017-10-11T17:38:38.371Z,81.12
2017-10-11T17:41:05.869Z,81.06
2017-10-11T17:43:33.325Z,80.74
2017-10-11T17:46:00.851Z,80.39
2017-10-11T17:48:28.328Z,80.58
2017-10-11T17:50:55.863Z,80.80
2017-10-11T17:53:23.393Z,80.72
2017-10-11T17:55:50.878Z,81.45
2017-10-11T17:58:18.332Z,81.32
2017-10-11T18:00:45.805Z,81.19
2017-10-11T18:03:13.269Z,81.65
2017-10-11T18:05:40.746Z,82.15
2017-10-11T18:08:08.205Z,81.27
2017-10-11T18:10:35.681Z,81.01
2017-10-11T18:13:03.149Z,81.06
2017-10-11T18:15:30.643Z,80.88
2017-10-11T18:17:58.107Z,81.73
2017-10-11T18:20:25.651Z,82.16
2017-10-11T18:22:53.110Z,83.06
2017-10-11T18:25:20.682Z,82.72
2017-10-11T18:27:48.166Z,83.07
2017-10-11T18:30:15.649Z,83.25
2017-10-11T18:32:43.106Z,83.68
2017-10-11T18:35:10.604Z,83.87
2017-10-11T18:37:38.066Z,83.92
2017-10-11T18:40:05.558Z,83.99
2017-10-11T18:42:33.044Z,84.17
2017-10-11T18:45:00.584Z,84.75
2017-10-11T18:47:28.045Z,84.78
2017-10-11T18:49:55.558Z,85.15
2017-10-11T18:52:23.021Z,85.25
2017-10-11T18:54:50.487Z,86.68
2017-10-11T18:57:17.941Z,86.31
2017-10-11T18:59:45.397Z,86.58
2017-10-11T19:02:12.882Z,86.41
2017-10-11T19:04:40.432Z,86.73
2017-10-11T19:07:07.937Z,86.60
2017-10-11T19:09:35.380Z,86.62
2017-10-11T19:12:02.853Z,85.81
2017-10-11T19:14:30.429Z,85.53
2017-10-11T19:16:57.940Z,85.48
2017-10-11T19:19:25.401Z,85.34
2017-10-11T19:21:52.897Z,85.30
2017-10-11T19:24:20.447Z,85.87
2017-10-11T19:26:47.937Z,85.43
2017-10-11T19:29:15.387Z,85.56
2017-10-11T19:31:42.898Z,85.52
2017-10-11T19:34:10.354Z,85.25
2017-10-11T19:36:37.838Z,85.38
2017-10-11T19:39:05.333Z,85.69
2017-10-11T19:41:32.810Z,85.33
2017-10-11T19:44:00.317Z,85.56
2017-10-11T19:46:27.807Z,85.60
2017-10-11T19:48:55.274Z,86.15
2017-10-11T19:51:22.763Z,86.38
2017-10-11T19:53:50.237Z,86.05
2017-10-11T19:56:17.785Z,85.89
2017-10-11T19:58:45.270Z,86.24
2017-10-11T20:01:12.733Z,86.78
2017-10-11T20:03:40.242Z,86.71
2017-10-11T20:06:07.697Z,86.77
2017-10-11T20:08:35.194Z,86.14
2017-10-11T20:11:02.648Z,86.49
2017-10-11T20:13:30.138Z,86.50
2017-10-11T20:15:57.601Z,86.55
2017-10-11T20:18:25.055Z,85.88
2017-10-11T20:20:52.542Z,86.31
2017-10-11T20:23:20.045Z,86.84
2017-10-11T20:25:47.535Z,86.98
2017-10-11T20:28:14.993Z,86.74
2017-10-11T20:30:42.516Z,87.17
2017-10-11T20:33:09.997Z,87.42
2017-10-11T20:35:37.485Z,87.09
2017-10-11T20:38:04.973Z,86.98
2017-10-11T20:40:32.519Z,87.46
2017-10-11T20:42:59.963Z,87.03
2017-10-11T20:45:27.486Z,87.02
2017-10-11T20:47:54.982Z,86.87
2017-10-11T20:50:22.470Z,86.89
2017-10-11T20:52:49.944Z,86.60
2017-10-11T20:55:17.409Z,86.64
2017-10-11T20:57:44.888Z,86.74
2017-10-11T21:00:12.374Z,86.71
2017-10-11T21:02:39.849Z,86.86
2017-10-11T21:05:07.400Z,87.15
2017-10-11T21:07:34.877Z,87.32
2017-10-11T21:10:02.334Z,87.74
2017-10-11T21:12:29.812Z,87.45
2017-10-11T21:14:57.536Z,86.95
2017-10-11T21:17:25.087Z,87.04
2017-10-11T21:19:52.562Z,87.75
2017-10-11T21:22:20.058Z,87.13
2017-10-11T21:24:47.543Z,86.80
2017-10-11T21:27:15.108Z,87.67
2017-10-11T21:29:42.573Z,87.33
2017-10-11T21:32:10.134Z,86.77
2017-10-11T21:34:37.681Z,87.24
2017-10-11T21:37:05.244Z,87.81
2017-10-11T21:39:32.716Z,87.57
2017-10-11T21:42:00.174Z,87.55
2017-10-11T21:44:27.666Z,87.30
2017-10-11T21:46:55.111Z,87.87
2017-10-11T21:49:22.633Z,87.73
2017-10-11T21:51:50.237Z,87.35
2017-10-11T21:54:17.741Z,87.64
2017-10-11T21:56:45.183Z,87.28
2017-10-11T21:59:12.662Z,86.62
2017-10-11T22:01:40.162Z,87.35
2017-10-11T22:04:07.631Z,86.65
2017-10-11T22:06:35.093Z,87.47
2017-10-11T22:09:02.568Z,87.87
2017-10-11T22:11:30.053Z,87.11
2017-10-11T22:13:57.598Z,87.02
2017-10-11T22:16:25.063Z,86.99
2017-10-11T22:18:52.524Z,86.94
2017-10-11T22:21:19.991Z,87.02
2017-10-11T22:23:47.460Z,86.90
2017-10-11T22:26:14.943Z,87.19
2017-10-11T22:28:42.445Z,87.03
2017-10-11T22:31:09.917Z,87.60
2017-10-11T22:33:37.461Z,87.65
2017-10-11T22:36:04.982Z,87.19
2017-10-11T22:38:32.500Z,87.19
2017-10-11T22:40:59.981Z,88.02
2017-10-11T22:43:27.454Z,88.59
2017-10-11T22:45:54.917Z,89.94
2017-10-11T22:48:22.405Z,89.85
2017-10-11T22:50:49.855Z,88.57
2017-10-11T22:53:17.433Z,87.92
2017-10-11T22:55:44.972Z,87.64
2017-10-11T22:58:12.469Z,87.81
2017-10-11T23:00:39.915Z,87.86
2017-10-11T23:03:07.389Z,88.65
2017-10-11T23:05:34.865Z,88.54
2017-10-11T23:08:02.370Z,88.69
2017-10-11T23:10:29.823Z,88.86
2017-10-11T23:12:57.282Z,88.80
2017-10-11T23:15:24.831Z,88.91
2017-10-11T23:17:52.298Z,88.84
2017-10-11T23:20:19.812Z,88.92
2017-10-11T23:22:47.278Z,89.14
2017-10-11T23:25:14.753Z,88.69
2017-10-11T23:27:42.195Z,88.59
2017-10-11T23:30:09.658Z,88.15
2017-10-11T23:32:37.133Z,88.13
2017-10-11T23:35:04.621Z,88.45
2017-10-11T23:37:32.158Z,88.23
2017-10-11T23:39:59.700Z,88.86
2017-10-11T23:42:27.161Z,89.66
2017-10-11T23:44:54.622Z,89.76
2017-10-11T23:47:22.184Z,90.60
2017-10-11T23:49:49.647Z,89.69
2017-10-11T23:52:17.198Z,89.72
2017-10-11T23:54:44.658Z,90.29
2017-10-11T23:57:12.123Z,89.03
2017-10-11T23:59:39.585Z,88.92
